createdAt,value
2022-12-25T00:01:26.028Z,88.60
2022-12-25T00:03:55.955Z,88.50
2022-12-25T00:06:24.162Z,88.60
2022-12-25T00:08:52.634Z,89.10
2022-12-25T00:11:22.253Z,89.00
2022-12-25T00:13:50.691Z,89.00
2022-12-25T00:16:28.497Z,89.30
2022-12-25T00:18:57.400Z,89.10
2022-12-25T00:21:29.960Z,89.10
2022-12-25T00:23:59.089Z,89.30
2022-12-25T00:26:28.336Z,89.10
2022-12-25T00:28:57.179Z,89.20
2022-12-25T00:31:25.063Z,89.20
2022-12-25T00:33:52.828Z,89.10
2022-12-25T00:36:21.578Z,89.00
2022-12-25T00:38:52.119Z,89.10
2022-12-25T00:41:42.618Z,89.00
2022-12-25T00:44:13.907Z,89.20
2022-12-25T00:46:42.582Z,89.20
2022-12-25T00:49:11.892Z,89.30
2022-12-25T00:51:40.505Z,89.20
2022-12-25T00:54:15.127Z,89.20
2022-12-25T00:56:42.026Z,89.60
2022-12-25T00:59:09.878Z,89.70
2022-12-25T01:01:39.554Z,89.70
2022-12-25T01:04:08.861Z,89.70
2022-12-25T01:06:35.776Z,89.70
2022-12-25T01:09:22.240Z,89.70
2022-12-25T01:11:49.018Z,89.80
2022-12-25T01:14:30.147Z,89.90
2022-12-25T01:16:57.132Z,90.20
2022-12-25T01:19:24.090Z,90.30
2022-12-25T01:21:50.939Z,90.20
2022-12-25T01:24:18.690Z,90.10
2022-12-25T01:26:47.929Z,90.10
2022-12-25T01:29:14.713Z,90.20
2022-12-25T01:31:41.611Z,90.10
2022-12-25T01:34:08.589Z,90.00
2022-12-25T01:36:36.495Z,90.00
2022-12-25T01:39:04.177Z,89.90
2022-12-25T01:41:33.330Z,89.90
2022-12-25T01:44:28.963Z,89.70
2022-12-25T01:46:55.770Z,90.00
2022-12-25T01:49:25.032Z,90.00
2022-12-25T01:52:00.607Z,89.80
2022-12-25T01:54:46.512Z,89.80
2022-12-25T01:57:19.381Z,89.80
2022-12-25T01:59:47.214Z,89.80
2022-12-25T02:02:14.820Z,89.70
2022-12-25T02:05:02.671Z,89.60
2022-12-25T02:07:32.598Z,89.50
2022-12-25T02:09:59.370Z,89.50
2022-12-25T02:12:35.262Z,89.40
2022-12-25T02:15:14.975Z,89.50
2022-12-25T02:18:01.000Z,89.60
2022-12-25T02:20:51.226Z,89.80
2022-12-25T02:23:32.948Z,90.00
2022-12-25T02:26:00.863Z,90.10
2022-12-25T02:28:30.551Z,90.30
2022-12-25T02:31:06.623Z,90.40
2022-12-25T02:34:04.939Z,90.30
2022-12-25T02:37:14.501Z,90.30
2022-12-25T02:39:57.715Z,90.40
2022-12-25T02:43:18.841Z,90.60
2022-12-25T02:46:23.331Z,90.40
2022-12-25T02:49:16.753Z,90.40
2022-12-25T02:52:22.191Z,90.30
2022-12-25T02:55:13.395Z,90.40
2022-12-25T02:58:05.116Z,90.50
2022-12-25T03:01:00.574Z,90.50
2022-12-25T03:03:50.218Z,90.50
2022-12-25T03:06:37.584Z,90.20
2022-12-25T03:09:27.436Z,90.10
2022-12-25T03:12:02.361Z,89.90
2022-12-25T03:14:48.250Z,90.10
2022-12-25T03:17:15.187Z,90.10
2022-12-25T03:20:00.899Z,90.10
2022-12-25T03:22:49.243Z,90.00
2022-12-25T03:25:36.913Z,90.00
2022-12-25T03:28:05.637Z,89.90
2022-12-25T03:31:11.551Z,90.00
2022-12-25T03:34:27.863Z,90.10
2022-12-25T03:37:28.491Z,90.10
2022-12-25T03:40:34.780Z,90.20
2022-12-25T03:43:54.053Z,90.20
2022-12-25T03:46:41.365Z,90.30
2022-12-25T03:49:35.717Z,90.50
2022-12-25T03:52:24.779Z,90.40
2022-12-25T03:55:13.576Z,90.30
2022-12-25T03:58:00.161Z,90.50
2022-12-25T04:00:45.513Z,90.40
2022-12-25T04:03:31.288Z,90.30
2022-12-25T04:06:16.829Z,90.40
2022-12-25T04:09:02.402Z,90.30
2022-12-25T04:11:48.116Z,90.20
2022-12-25T04:14:33.546Z,90.30
2022-12-25T04:17:19.051Z,90.30
2022-12-25T04:20:04.530Z,90.20
2022-12-25T04:22:51.263Z,90.10
2022-12-25T04:25:36.551Z,90.10
2022-12-25T04:28:22.687Z,90.10
2022-12-25T04:31:09.281Z,90.10
2022-12-25T04:33:54.679Z,90.00
2022-12-25T04:36:21.992Z,90.10
2022-12-25T04:38:48.683Z,89.90
2022-12-25T04:41:17.466Z,90.00
2022-12-25T04:43:46.971Z,90.10
2022-12-25T04:46:13.764Z,90.10
2022-12-25T04:48:42.040Z,90.10
2022-12-25T04:51:11.636Z,90.20
2022-12-25T04:53:38.429Z,90.10
2022-12-25T04:56:05.717Z,90.30
2022-12-25T04:58:35.066Z,90.20
2022-12-25T05:01:03.473Z,90.40
2022-12-25T05:03:31.186Z,90.50
2022-12-25T05:05:57.961Z,90.60
2022-12-25T05:08:24.825Z,90.50
2022-12-25T05:10:51.686Z,90.50
2022-12-25T05:13:18.641Z,90.70
2022-12-25T05:15:45.524Z,90.90
2022-12-25T05:18:12.312Z,90.80
2022-12-25T05:20:40.450Z,90.90
2022-12-25T05:23:09.055Z,90.80
2022-12-25T05:25:39.625Z,90.90
2022-12-25T05:28:06.678Z,90.80
2022-12-25T05:30:35.065Z,90.70
2022-12-25T05:33:02.722Z,90.60
2022-12-25T05:35:30.804Z,90.60
2022-12-25T05:37:58.859Z,90.80
2022-12-25T05:40:25.568Z,90.70
2022-12-25T05:42:53.815Z,90.70
2022-12-25T05:45:20.688Z,90.90
2022-12-25T05:47:49.504Z,91.00
2022-12-25T05:50:16.407Z,91.00
2022-12-25T05:52:43.116Z,90.80
2022-12-25T05:55:09.822Z,90.90
2022-12-25T05:57:37.650Z,90.80
2022-12-25T06:00:06.082Z,90.90
2022-12-25T06:02:35.669Z,90.80
2022-12-25T06:05:04.694Z,90.80
2022-12-25T06:07:31.407Z,90.90
2022-12-25T06:09:58.239Z,91.00
2022-12-25T06:12:24.969Z,91.00
2022-12-25T06:14:52.827Z,91.00
2022-12-25T06:17:20.726Z,90.90
2022-12-25T06:19:50.249Z,91.10
2022-12-25T06:22:16.987Z,91.10
2022-12-25T06:24:45.176Z,90.80
2022-12-25T06:27:12.195Z,90.70
2022-12-25T06:29:38.965Z,90.70
2022-12-25T06:32:06.780Z,90.60
2022-12-25T06:34:34.719Z,90.70
2022-12-25T06:37:01.500Z,90.60
2022-12-25T06:39:28.315Z,90.60
2022-12-25T06:41:55.804Z,90.50
2022-12-25T06:44:22.634Z,90.40
2022-12-25T06:46:49.479Z,90.50
2022-12-25T06:49:16.504Z,90.40
2022-12-25T06:51:43.412Z,90.40
2022-12-25T06:54:10.170Z,90.30
2022-12-25T06:56:37.125Z,90.50
2022-12-25T06:59:08.038Z,90.50
2022-12-25T07:01:39.643Z,90.60
2022-12-25T07:04:11.044Z,90.80
2022-12-25T07:06:37.852Z,91.00
2022-12-25T07:09:04.584Z,91.00
2022-12-25T07:11:31.260Z,91.20
2022-12-25T07:13:59.390Z,91.20
2022-12-25T07:16:30.040Z,91.10
2022-12-25T07:19:00.125Z,91.20
2022-12-25T07:21:27.457Z,91.30
2022-12-25T07:23:54.215Z,91.20
2022-12-25T07:26:21.174Z,91.30
2022-12-25T07:28:49.956Z,91.20
2022-12-25T07:31:18.611Z,91.30
2022-12-25T07:33:45.709Z,91.30
2022-12-25T07:36:14.350Z,91.30
2022-12-25T07:38:42.363Z,91.40
2022-12-25T07:41:12.883Z,91.30
2022-12-25T07:43:39.864Z,91.40
2022-12-25T07:46:08.355Z,91.50
2022-12-25T07:48:36.802Z,91.30
2022-12-25T07:51:08.059Z,91.20
2022-12-25T07:53:35.751Z,91.10
2022-12-25T07:56:03.861Z,91.30
2022-12-25T07:58:32.065Z,91.30
2022-12-25T08:01:06.285Z,91.40
2022-12-25T08:03:34.494Z,91.30
2022-12-25T08:06:04.352Z,91.30
2022-12-25T08:08:31.705Z,91.30
2022-12-25T08:10:59.404Z,91.20
2022-12-25T08:13:26.276Z,91.20
2022-12-25T08:16:00.064Z,90.90
2022-12-25T08:18:30.284Z,90.80
2022-12-25T08:21:02.132Z,90.50
2022-12-25T08:23:30.336Z,90.30
2022-12-25T08:26:05.107Z,90.40
2022-12-25T08:28:34.341Z,90.30
2022-12-25T08:31:07.766Z,90.10
2022-12-25T08:33:36.550Z,90.10
2022-12-25T08:36:06.059Z,90.00
2022-12-25T08:38:32.904Z,90.00
2022-12-25T08:40:59.671Z,90.00
2022-12-25T08:43:28.135Z,89.80
2022-12-25T08:45:55.086Z,89.70
2022-12-25T08:48:22.270Z,89.60
2022-12-25T08:50:51.248Z,89.60
2022-12-25T08:53:18.462Z,89.60
2022-12-25T08:55:46.489Z,89.40
2022-12-25T08:58:14.731Z,89.50
2022-12-25T09:00:43.047Z,89.40
2022-12-25T09:03:09.773Z,89.40
2022-12-25T09:05:38.771Z,89.40
2022-12-25T09:08:13.448Z,89.40
2022-12-25T09:10:42.424Z,89.30
2022-12-25T09:13:09.922Z,89.20
2022-12-25T09:15:38.852Z,89.20
2022-12-25T09:18:06.961Z,89.20
2022-12-25T09:20:33.785Z,89.20
2022-12-25T09:23:00.847Z,89.20
2022-12-25T09:25:27.889Z,89.20
2022-12-25T09:27:57.856Z,88.80
2022-12-25T09:30:24.722Z,88.30
2022-12-25T09:32:53.523Z,88.20
2022-12-25T09:35:21.681Z,88.10
2022-12-25T09:37:48.437Z,88.20
2022-12-25T09:40:21.299Z,88.10
2022-12-25T09:42:49.247Z,88.00
2022-12-25T09:45:27.187Z,87.80
2022-12-25T09:47:57.052Z,87.80
2022-12-25T09:50:42.612Z,87.50
2022-12-25T09:53:33.481Z,87.00
2022-12-25T09:56:25.878Z,86.90
2022-12-25T09:58:53.542Z,86.10
2022-12-25T10:01:39.061Z,85.80
2022-12-25T10:04:22.845Z,85.80
2022-12-25T10:07:11.699Z,85.50
2022-12-25T10:09:53.655Z,85.40
2022-12-25T10:13:01.569Z,85.50
2022-12-25T10:16:08.420Z,85.20
2022-12-25T10:18:59.217Z,85.50
2022-12-25T10:21:28.106Z,85.70
2022-12-25T10:24:14.139Z,85.50
2022-12-25T10:26:41.329Z,85.10
2022-12-25T10:29:22.407Z,85.10
2022-12-25T10:31:57.105Z,85.00
2022-12-25T10:34:24.340Z,84.50
2022-12-25T10:36:52.148Z,84.20
2022-12-25T10:39:24.920Z,84.00
2022-12-25T10:42:10.516Z,83.90
2022-12-25T10:44:38.359Z,84.10
2022-12-25T10:47:08.394Z,84.00
2022-12-25T10:49:46.304Z,83.50
2022-12-25T10:52:22.382Z,83.10
2022-12-25T10:54:50.425Z,82.90
2022-12-25T10:57:21.765Z,82.50
2022-12-25T10:59:59.715Z,82.80
2022-12-25T11:02:40.359Z,83.10
2022-12-25T11:05:29.326Z,82.80
2022-12-25T11:07:57.057Z,82.60
2022-12-25T11:10:37.169Z,81.80
2022-12-25T11:13:08.129Z,82.00
2022-12-25T11:15:41.394Z,82.50
2022-12-25T11:18:29.549Z,82.10
2022-12-25T11:21:20.611Z,81.80
2022-12-25T11:24:04.571Z,81.50
2022-12-25T11:27:00.944Z,81.50
2022-12-25T11:29:37.158Z,82.00
2022-12-25T11:32:10.669Z,81.30
2022-12-25T11:34:42.697Z,81.00
2022-12-25T11:37:32.356Z,80.90
2022-12-25T11:40:00.604Z,80.50
2022-12-25T11:42:37.443Z,80.70
2022-12-25T11:45:30.891Z,80.20
2022-12-25T11:48:20.432Z,80.60
2022-12-25T11:50:52.812Z,79.50
2022-12-25T11:53:41.995Z,79.50
2022-12-25T11:56:18.120Z,79.60
2022-12-25T11:58:49.457Z,80.00
2022-12-25T12:01:46.486Z,79.40
2022-12-25T12:04:29.954Z,78.90
2022-12-25T12:07:06.603Z,78.50
2022-12-25T12:09:58.641Z,78.20
2022-12-25T12:12:35.796Z,78.30
2022-12-25T12:15:31.230Z,78.10
2022-12-25T12:18:33.098Z,78.00
2022-12-25T12:21:24.310Z,78.00
2022-12-25T12:24:12.055Z,77.70
2022-12-25T12:26:40.975Z,78.40
2022-12-25T12:29:21.772Z,78.50
2022-12-25T12:31:50.635Z,78.80
2022-12-25T12:34:30.355Z,79.10
2022-12-25T12:37:06.055Z,79.00
2022-12-25T12:39:39.728Z,78.70
2022-12-25T12:42:18.595Z,78.50
2022-12-25T12:44:46.349Z,78.70
2022-12-25T12:47:43.966Z,78.20
2022-12-25T12:50:36.793Z,78.50
2022-12-25T12:53:30.540Z,78.00
2022-12-25T12:56:08.172Z,78.00
2022-12-25T12:58:38.185Z,77.60
2022-12-25T13:01:27.876Z,77.10
2022-12-25T13:04:26.033Z,76.90
2022-12-25T13:07:13.215Z,77.10
2022-12-25T13:10:03.978Z,77.10
2022-12-25T13:12:31.931Z,76.80
2022-12-25T13:15:00.831Z,77.30
2022-12-25T13:17:28.796Z,77.00
2022-12-25T13:19:56.949Z,77.60
2022-12-25T13:22:35.728Z,77.70
2022-12-25T13:25:22.920Z,78.30
2022-12-25T13:27:56.836Z,77.80
2022-12-25T13:30:24.101Z,78.00
2022-12-25T13:32:59.970Z,79.10
2022-12-25T13:35:27.671Z,79.00
2022-12-25T13:37:54.771Z,78.40
2022-12-25T13:40:27.738Z,78.20
2022-12-25T13:42:59.228Z,78.50
2022-12-25T13:45:28.746Z,78.50
2022-12-25T13:47:56.211Z,78.90
2022-12-25T13:50:33.977Z,78.50
2022-12-25T13:53:16.710Z,78.60
2022-12-25T13:55:47.329Z,78.60
2022-12-25T13:58:24.135Z,78.40
2022-12-25T14:00:53.983Z,78.50
2022-12-25T14:03:24.771Z,78.80
2022-12-25T14:06:00.185Z,78.40
2022-12-25T14:08:31.509Z,79.00
2022-12-25T14:11:00.537Z,79.00
2022-12-25T14:13:28.801Z,79.00
2022-12-25T14:15:56.631Z,79.10
2022-12-25T14:18:25.209Z,79.30
2022-12-25T14:20:57.778Z,79.40
2022-12-25T14:23:24.890Z,79.50
2022-12-25T14:25:52.494Z,79.70
2022-12-25T14:28:32.091Z,79.80
2022-12-25T14:31:01.121Z,79.80
2022-12-25T14:33:28.747Z,80.00
2022-12-25T14:35:57.997Z,80.00
2022-12-25T14:38:36.451Z,80.20
2022-12-25T14:41:07.539Z,80.20
2022-12-25T14:43:36.367Z,80.40
2022-12-25T14:46:07.809Z,80.60
2022-12-25T14:48:34.690Z,81.00
2022-12-25T14:51:08.881Z,81.10
2022-12-25T14:53:50.647Z,81.20
2022-12-25T14:56:24.445Z,81.10
2022-12-25T14:59:01.982Z,81.60
2022-12-25T15:01:38.601Z,81.60
2022-12-25T15:04:12.461Z,81.70
2022-12-25T15:06:52.273Z,82.00
2022-12-25T15:09:19.386Z,82.20
2022-12-25T15:11:50.300Z,82.40
2022-12-25T15:14:17.118Z,82.40
2022-12-25T15:16:47.771Z,82.60
2022-12-25T15:19:38.817Z,83.00
2022-12-25T15:22:06.469Z,83.30
2022-12-25T15:24:35.371Z,83.80
2022-12-25T15:27:02.364Z,84.00
2022-12-25T15:32:21.933Z,84.00
2022-12-25T15:34:50.614Z,84.50
2022-12-25T15:37:19.574Z,84.60
2022-12-25T15:39:46.825Z,84.60
2022-12-25T15:42:15.683Z,85.00
2022-12-25T15:44:45.811Z,85.90
2022-12-25T15:47:14.804Z,85.40
2022-12-25T15:49:42.159Z,85.20
2022-12-25T15:52:16.914Z,85.40
2022-12-25T15:54:43.795Z,86.00
2022-12-25T15:57:21.006Z,85.80
2022-12-25T15:59:49.987Z,85.70
2022-12-25T16:02:19.914Z,86.00
2022-12-25T16:04:47.399Z,86.10
2022-12-25T16:07:19.869Z,87.10
2022-12-25T16:09:48.006Z,86.30
2022-12-25T16:12:17.547Z,86.10
2022-12-25T16:14:45.488Z,86.00
2022-12-25T16:17:16.059Z,86.10
2022-12-25T16:19:44.996Z,86.40
2022-12-25T16:22:21.527Z,86.30
2022-12-25T16:24:49.548Z,86.30
2022-12-25T16:27:16.349Z,86.40
2022-12-25T16:29:43.431Z,86.70
2022-12-25T16:32:14.502Z,86.90
2022-12-25T16:34:42.133Z,87.00
2022-12-25T16:37:09.842Z,86.70
2022-12-25T16:39:39.233Z,86.60
2022-12-25T16:42:06.129Z,86.60
2022-12-25T16:44:36.764Z,86.80
2022-12-25T16:47:03.566Z,86.60
2022-12-25T16:49:32.503Z,87.40
2022-12-25T16:51:59.367Z,87.80
2022-12-25T16:54:27.356Z,87.90
2022-12-25T16:56:54.186Z,88.10
2022-12-25T16:59:21.667Z,88.20
2022-12-25T17:01:50.082Z,87.90
2022-12-25T17:04:16.968Z,88.60
2022-12-25T17:06:43.844Z,88.40
2022-12-25T17:09:13.006Z,88.30
2022-12-25T17:11:39.824Z,88.40
2022-12-25T17:14:06.905Z,88.30
2022-12-25T17:16:38.216Z,87.90
2022-12-25T17:19:15.985Z,88.20
2022-12-25T17:21:43.798Z,88.00
2022-12-25T17:24:17.229Z,87.80
2022-12-25T17:26:44.772Z,87.70
2022-12-25T17:29:14.764Z,87.90
2022-12-25T17:31:45.604Z,88.00
2022-12-25T17:34:12.462Z,87.90
2022-12-25T17:36:40.309Z,87.90
2022-12-25T17:39:07.365Z,88.20
2022-12-25T17:41:34.518Z,88.30
2022-12-25T17:44:03.349Z,88.20
2022-12-25T17:46:31.248Z,88.00
2022-12-25T17:49:01.255Z,87.70
2022-12-25T17:51:29.860Z,87.90
2022-12-25T17:54:05.565Z,87.90
2022-12-25T17:56:33.678Z,88.10
2022-12-25T17:59:06.557Z,88.10
2022-12-25T18:01:38.580Z,88.20
2022-12-25T18:04:06.559Z,88.30
2022-12-25T18:06:35.807Z,88.20
2022-12-25T18:09:07.292Z,88.20
2022-12-25T18:11:37.274Z,88.70
2022-12-25T18:14:09.145Z,88.50
2022-12-25T18:16:38.847Z,88.50
2022-12-25T18:19:08.474Z,88.30
2022-12-25T18:21:35.401Z,88.30
2022-12-25T18:24:04.712Z,88.40
2022-12-25T18:26:34.233Z,88.60
2022-12-25T18:29:02.351Z,88.90
2022-12-25T18:31:31.791Z,88.90
2022-12-25T18:34:00.412Z,88.80
2022-12-25T18:36:29.450Z,89.40
2022-12-25T18:38:57.811Z,89.40
2022-12-25T18:41:25.043Z,89.10
2022-12-25T18:43:55.601Z,89.10
2022-12-25T18:46:28.366Z,89.40
2022-12-25T18:48:59.225Z,90.50
2022-12-25T18:51:32.923Z,90.50
2022-12-25T18:54:11.295Z,91.10
2022-12-25T18:56:37.991Z,90.70
2022-12-25T18:59:07.841Z,91.90
2022-12-25T19:01:34.943Z,92.00
2022-12-25T19:04:05.721Z,92.50
2022-12-25T19:06:33.453Z,92.60
2022-12-25T19:09:00.416Z,92.40
2022-12-25T19:11:30.591Z,91.90
2022-12-25T19:14:00.663Z,91.90
2022-12-25T19:16:27.514Z,92.00
2022-12-25T19:18:54.594Z,92.10
2022-12-25T19:21:21.447Z,91.80
2022-12-25T19:23:49.458Z,91.50
2022-12-25T19:26:17.504Z,91.10
2022-12-25T19:28:44.349Z,90.90
2022-12-25T19:31:15.276Z,90.70
2022-12-25T19:33:42.931Z,90.70
2022-12-25T19:36:15.246Z,90.70
2022-12-25T19:38:46.107Z,90.50
2022-12-25T19:41:16.046Z,90.70
2022-12-25T19:43:47.496Z,90.80
2022-12-25T19:46:36.892Z,90.80
2022-12-25T19:49:04.626Z,91.00
2022-12-25T19:51:33.220Z,91.10
2022-12-25T19:54:05.163Z,91.10
2022-12-25T19:56:33.418Z,91.30
2022-12-25T19:59:02.463Z,92.40
2022-12-25T20:01:33.425Z,93.40
2022-12-25T20:04:00.503Z,94.10
2022-12-25T20:06:30.739Z,94.20
2022-12-25T20:09:07.171Z,94.40
2022-12-25T20:11:35.341Z,94.70
2022-12-25T20:14:02.507Z,94.50
2022-12-25T20:16:29.322Z,94.60
2022-12-25T20:18:57.251Z,94.50
2022-12-25T20:21:27.410Z,94.60
2022-12-25T20:23:54.709Z,94.50
2022-12-25T20:26:24.391Z,94.20
2022-12-25T20:28:51.723Z,94.10
2022-12-25T20:31:21.806Z,93.90
2022-12-25T20:33:48.865Z,93.80
2022-12-25T20:36:16.360Z,93.60
2022-12-25T20:38:44.238Z,93.40
2022-12-25T20:41:26.779Z,93.30
2022-12-25T20:43:58.114Z,93.10
2022-12-25T20:46:26.880Z,92.80
2022-12-25T20:48:54.368Z,92.60
2022-12-25T20:51:26.101Z,92.50
2022-12-25T20:53:53.406Z,92.40
2022-12-25T20:56:22.750Z,92.40
2022-12-25T20:58:54.083Z,92.30
2022-12-25T21:01:22.280Z,92.30
2022-12-25T21:03:53.606Z,92.30
2022-12-25T21:06:23.918Z,92.10
2022-12-25T21:08:57.218Z,92.00
2022-12-25T21:11:27.359Z,91.60
2022-12-25T21:13:54.333Z,91.40
2022-12-25T21:16:22.304Z,91.30
2022-12-25T21:18:51.078Z,91.10
2022-12-25T21:21:19.039Z,90.80
2022-12-25T21:23:46.742Z,90.60
2022-12-25T21:26:15.920Z,90.50
2022-12-25T21:28:43.116Z,90.30
2022-12-25T21:31:10.786Z,90.00
2022-12-25T21:33:54.428Z,89.90
2022-12-25T21:36:29.962Z,89.80
2022-12-25T21:39:00.001Z,89.70
2022-12-25T21:41:30.095Z,89.60
2022-12-25T21:44:02.967Z,89.40
2022-12-25T21:46:29.958Z,89.40
2022-12-25T21:48:58.405Z,89.30
2022-12-25T21:51:50.104Z,89.20
2022-12-25T21:54:25.208Z,89.10
2022-12-25T21:56:53.315Z,89.10
2022-12-25T21:59:22.857Z,89.10
2022-12-25T22:01:51.628Z,89.00
2022-12-25T22:04:20.637Z,89.00
2022-12-25T22:07:08.235Z,88.90
2022-12-25T22:09:35.412Z,89.00
2022-12-25T22:12:22.004Z,88.90
2022-12-25T22:14:56.189Z,88.80
2022-12-25T22:17:48.336Z,88.80
2022-12-25T22:20:18.902Z,88.80
2022-12-25T22:22:52.534Z,88.80
2022-12-25T22:25:21.324Z,89.00
2022-12-25T22:27:48.806Z,88.90
2022-12-25T22:30:20.908Z,89.00
2022-12-25T22:32:48.628Z,89.00
2022-12-25T22:35:15.333Z,88.90
2022-12-25T22:37:42.711Z,88.80
2022-12-25T22:40:14.370Z,88.50
2022-12-25T22:42:42.080Z,88.40
2022-12-25T22:45:09.084Z,88.50
2022-12-25T22:47:35.893Z,88.30
2022-12-25T22:50:02.803Z,88.30
2022-12-25T22:52:29.550Z,88.30
2022-12-25T22:54:56.336Z,88.30
2022-12-25T22:57:23.052Z,88.50
2022-12-25T22:59:54.123Z,88.50
2022-12-25T23:02:23.372Z,88.60
2022-12-25T23:04:50.721Z,88.80
2022-12-25T23:07:23.540Z,88.80
2022-12-25T23:09:50.310Z,88.90
2022-12-25T23:12:35.656Z,89.00
2022-12-25T23:15:04.486Z,89.00
2022-12-25T23:17:49.687Z,89.00
2022-12-25T23:20:35.107Z,89.00
2022-12-25T23:23:20.863Z,88.90
2022-12-25T23:26:06.505Z,88.80
2022-12-25T23:28:51.721Z,89.00
2022-12-25T23:31:20.573Z,89.10
2022-12-25T23:33:47.380Z,89.10
2022-12-25T23:36:14.333Z,89.00
2022-12-25T23:38:42.106Z,88.90
2022-12-25T23:41:08.960Z,88.90
2022-12-25T23:43:36.867Z,88.90
2022-12-25T23:46:03.993Z,88.80
2022-12-25T23:48:31.898Z,88.90
2022-12-25T23:51:04.739Z,88.80
2022-12-25T23:53:32.145Z,88.80
2022-12-25T23:56:00.707Z,88.80
2022-12-25T23:58:28.309Z,88.80
